sensor_id;sensor_type;location;lat;lon;timestamp;P1;durP1;ratioP1;P2;durP2;ratioP2
7171;SDS011;3627;46.544;14.944;2022-10-31T00:01:09;8.15;;;4.32;;
7171;SDS011;3627;46.544;14.944;2022-10-31T00:03:36;7.07;;;3.47;;
7171;SDS011;3627;46.544;14.944;2022-10-31T00:06:03;7.00;;;3.05;;
7171;SDS011;3627;46.544;14.944;2022-10-31T00:08:30;5.97;;;3.38;;
7171;SDS011;3627;46.544;14.944;2022-10-31T00:10:56;4.70;;;3.22;;
7171;SDS011;3627;46.544;14.944;2022-10-31T00:13:23;5.18;;;3.25;;
7171;SDS011;3627;46.544;14.944;2022-10-31T00:15:49;6.78;;;3.58;;
7171;SDS011;3627;46.544;14.944;2022-10-31T00:18:15;4.10;;;3.17;;
7171;SDS011;3627;46.544;14.944;2022-10-31T00:20:42;3.40;;;3.10;;
7171;SDS011;3627;46.544;14.944;2022-10-31T00:23:10;5.13;;;3.45;;
7171;SDS011;3627;46.544;14.944;2022-10-31T00:25:37;7.28;;;3.83;;
7171;SDS011;3627;46.544;14.944;2022-10-31T00:28:04;3.67;;;3.00;;
7171;SDS011;3627;46.544;14.944;2022-10-31T00:30:31;3.60;;;3.05;;
7171;SDS011;3627;46.544;14.944;2022-10-31T00:32:58;5.82;;;3.15;;
7171;SDS011;3627;46.544;14.944;2022-10-31T00:35:24;8.98;;;3.60;;
7171;SDS011;3627;46.544;14.944;2022-10-31T00:37:51;5.93;;;3.70;;
7171;SDS011;3627;46.544;14.944;2022-10-31T00:40:19;3.85;;;3.17;;
7171;SDS011;3627;46.544;14.944;2022-10-31T00:42:46;4.38;;;2.75;;
7171;SDS011;3627;46.544;14.944;2022-10-31T00:45:12;3.95;;;3.47;;
7171;SDS011;3627;46.544;14.944;2022-10-31T00:47:39;4.82;;;3.20;;
7171;SDS011;3627;46.544;14.944;2022-10-31T00:50:05;4.65;;;3.72;;
7171;SDS011;3627;46.544;14.944;2022-10-31T00:52:32;9.10;;;3.85;;
7171;SDS011;3627;46.544;14.944;2022-10-31T00:54:58;5.28;;;3.22;;
7171;SDS011;3627;46.544;14.944;2022-10-31T00:57:26;6.55;;;3.95;;
7171;SDS011;3627;46.544;14.944;2022-10-31T00:59:52;7.47;;;4.45;;
7171;SDS011;3627;46.544;14.944;2022-10-31T01:02:19;10.38;;;4.63;;
7171;SDS011;3627;46.544;14.944;2022-10-31T01:04:45;6.95;;;4.15;;
7171;SDS011;3627;46.544;14.944;2022-10-31T01:07:12;10.93;;;3.95;;
7171;SDS011;3627;46.544;14.944;2022-10-31T01:09:39;6.57;;;3.60;;
7171;SDS011;3627;46.544;14.944;2022-10-31T01:12:05;3.75;;;3.13;;
7171;SDS011;3627;46.544;14.944;2022-10-31T01:14:33;8.55;;;3.75;;
7171;SDS011;3627;46.544;14.944;2022-10-31T01:17:00;7.43;;;3.70;;
7171;SDS011;3627;46.544;14.944;2022-10-31T01:19:26;9.93;;;3.17;;
7171;SDS011;3627;46.544;14.944;2022-10-31T01:21:53;10.05;;;3.80;;
7171;SDS011;3627;46.544;14.944;2022-10-31T01:24:20;4.53;;;3.13;;
7171;SDS011;3627;46.544;14.944;2022-10-31T01:26:46;4.70;;;3.17;;
7171;SDS011;3627;46.544;14.944;2022-10-31T01:29:13;5.40;;;3.80;;
7171;SDS011;3627;46.544;14.944;2022-10-31T01:31:41;5.95;;;3.40;;
7171;SDS011;3627;46.544;14.944;2022-10-31T01:34:08;4.50;;;3.28;;
7171;SDS011;3627;46.544;14.944;2022-10-31T01:36:37;4.82;;;3.60;;
7171;SDS011;3627;46.544;14.944;2022-10-31T01:39:04;4.28;;;3.10;;
7171;SDS011;3627;46.544;14.944;2022-10-31T01:41:32;6.43;;;3.70;;
7171;SDS011;3627;46.544;14.944;2022-10-31T01:44:00;5.38;;;3.50;;
7171;SDS011;3627;46.544;14.944;2022-10-31T01:46:27;3.78;;;2.90;;
7171;SDS011;3627;46.544;14.944;2022-10-31T01:48:57;4.38;;;3.22;;
7171;SDS011;3627;46.544;14.944;2022-10-31T01:51:25;6.15;;;3.83;;
7171;SDS011;3627;46.544;14.944;2022-10-31T01:53:54;4.28;;;3.17;;
7171;SDS011;3627;46.544;14.944;2022-10-31T01:56:24;4.70;;;2.80;;
7171;SDS011;3627;46.544;14.944;2022-10-31T01:58:50;3.88;;;3.05;;
7171;SDS011;3627;46.544;14.944;2022-10-31T02:01:17;6.88;;;3.22;;
7171;SDS011;3627;46.544;14.944;2022-10-31T02:03:44;6.32;;;3.05;;
7171;SDS011;3627;46.544;14.944;2022-10-31T02:06:16;4.95;;;3.08;;
7171;SDS011;3627;46.544;14.944;2022-10-31T02:08:45;6.60;;;2.67;;
7171;SDS011;3627;46.544;14.944;2022-10-31T02:11:11;5.65;;;3.22;;
7171;SDS011;3627;46.544;14.944;2022-10-31T02:13:38;4.43;;;3.53;;
7171;SDS011;3627;46.544;14.944;2022-10-31T02:16:05;9.77;;;3.08;;
7171;SDS011;3627;46.544;14.944;2022-10-31T02:18:31;5.35;;;3.25;;
7171;SDS011;3627;46.544;14.944;2022-10-31T02:21:00;4.60;;;2.92;;
7171;SDS011;3627;46.544;14.944;2022-10-31T02:23:43;4.32;;;2.80;;
7171;SDS011;3627;46.544;14.944;2022-10-31T02:28:58;8.85;;;3.25;;
7171;SDS011;3627;46.544;14.944;2022-10-31T02:31:31;4.35;;;2.90;;
7171;SDS011;3627;46.544;14.944;2022-10-31T02:34:01;6.97;;;2.78;;
7171;SDS011;3627;46.544;14.944;2022-10-31T02:36:30;5.88;;;3.55;;
7171;SDS011;3627;46.544;14.944;2022-10-31T02:39:00;3.97;;;3.40;;
7171;SDS011;3627;46.544;14.944;2022-10-31T02:41:31;5.25;;;3.30;;
7171;SDS011;3627;46.544;14.944;2022-10-31T02:44:00;5.38;;;3.22;;
7171;SDS011;3627;46.544;14.944;2022-10-31T02:46:28;5.43;;;2.80;;
7171;SDS011;3627;46.544;14.944;2022-10-31T02:49:00;3.38;;;3.08;;
7171;SDS011;3627;46.544;14.944;2022-10-31T02:51:27;6.32;;;3.20;;
7171;SDS011;3627;46.544;14.944;2022-10-31T02:53:54;7.80;;;3.05;;
7171;SDS011;3627;46.544;14.944;2022-10-31T02:56:20;8.98;;;3.22;;
7171;SDS011;3627;46.544;14.944;2022-10-31T02:58:47;4.45;;;3.30;;
7171;SDS011;3627;46.544;14.944;2022-10-31T03:01:37;4.65;;;3.60;;
7171;SDS011;3627;46.544;14.944;2022-10-31T03:04:13;4.80;;;3.70;;
7171;SDS011;3627;46.544;14.944;2022-10-31T03:06:44;3.95;;;2.92;;
7171;SDS011;3627;46.544;14.944;2022-10-31T03:09:13;7.55;;;3.30;;
7171;SDS011;3627;46.544;14.944;2022-10-31T03:11:44;5.47;;;3.58;;
7171;SDS011;3627;46.544;14.944;2022-10-31T03:14:12;8.80;;;3.63;;
7171;SDS011;3627;46.544;14.944;2022-10-31T03:16:45;3.58;;;3.28;;
7171;SDS011;3627;46.544;14.944;2022-10-31T03:19:14;3.80;;;2.92;;
7171;SDS011;3627;46.544;14.944;2022-10-31T03:21:44;5.97;;;3.75;;
7171;SDS011;3627;46.544;14.944;2022-10-31T03:24:11;3.92;;;2.95;;
7171;SDS011;3627;46.544;14.944;2022-10-31T03:26:40;3.15;;;2.83;;
7171;SDS011;3627;46.544;14.944;2022-10-31T03:29:08;5.28;;;3.03;;
7171;SDS011;3627;46.544;14.944;2022-10-31T03:31:36;7.25;;;3.33;;
7171;SDS011;3627;46.544;14.944;2022-10-31T03:34:03;4.93;;;2.63;;
7171;SDS011;3627;46.544;14.944;2022-10-31T03:36:32;11.10;;;4.82;;
7171;SDS011;3627;46.544;14.944;2022-10-31T03:39:00;6.22;;;3.42;;
7171;SDS011;3627;46.544;14.944;2022-10-31T03:41:28;8.40;;;3.40;;
7171;SDS011;3627;46.544;14.944;2022-10-31T03:43:57;15.27;;;6.43;;
7171;SDS011;3627;46.544;14.944;2022-10-31T03:46:24;11.20;;;4.82;;
7171;SDS011;3627;46.544;14.944;2022-10-31T03:48:51;6.72;;;3.97;;
7171;SDS011;3627;46.544;14.944;2022-10-31T03:51:19;5.05;;;4.00;;
7171;SDS011;3627;46.544;14.944;2022-10-31T03:53:50;4.38;;;3.38;;
7171;SDS011;3627;46.544;14.944;2022-10-31T03:56:19;6.35;;;3.70;;
7171;SDS011;3627;46.544;14.944;2022-10-31T03:58:47;6.03;;;3.63;;
7171;SDS011;3627;46.544;14.944;2022-10-31T04:01:15;6.10;;;4.10;;
7171;SDS011;3627;46.544;14.944;2022-10-31T04:03:43;6.32;;;5.55;;
7171;SDS011;3627;46.544;14.944;2022-10-31T04:06:10;7.18;;;3.85;;
7171;SDS011;3627;46.544;14.944;2022-10-31T04:08:40;9.15;;;4.57;;
7171;SDS011;3627;46.544;14.944;2022-10-31T04:11:09;10.25;;;4.80;;
7171;SDS011;3627;46.544;14.944;2022-10-31T04:13:37;10.77;;;5.53;;
7171;SDS011;3627;46.544;14.944;2022-10-31T04:16:05;10.65;;;5.35;;
7171;SDS011;3627;46.544;14.944;2022-10-31T04:18:32;5.30;;;4.15;;
7171;SDS011;3627;46.544;14.944;2022-10-31T04:20:59;7.03;;;4.25;;
7171;SDS011;3627;46.544;14.944;2022-10-31T04:23:26;6.45;;;3.97;;
7171;SDS011;3627;46.544;14.944;2022-10-31T04:25:52;6.00;;;3.88;;
7171;SDS011;3627;46.544;14.944;2022-10-31T04:28:20;7.93;;;3.72;;
7171;SDS011;3627;46.544;14.944;2022-10-31T04:30:47;5.28;;;3.60;;
7171;SDS011;3627;46.544;14.944;2022-10-31T04:33:13;6.25;;;3.67;;
7171;SDS011;3627;46.544;14.944;2022-10-31T04:35:40;15.63;;;3.42;;
7171;SDS011;3627;46.544;14.944;2022-10-31T04:38:06;4.53;;;3.60;;
7171;SDS011;3627;46.544;14.944;2022-10-31T04:40:33;4.68;;;3.03;;
7171;SDS011;3627;46.544;14.944;2022-10-31T04:42:59;4.15;;;3.50;;
7171;SDS011;3627;46.544;14.944;2022-10-31T04:45:27;3.08;;;2.78;;
7171;SDS011;3627;46.544;14.944;2022-10-31T04:47:53;3.28;;;2.97;;
7171;SDS011;3627;46.544;14.944;2022-10-31T04:50:19;7.47;;;2.95;;
7171;SDS011;3627;46.544;14.944;2022-10-31T04:52:46;5.72;;;3.00;;
7171;SDS011;3627;46.544;14.944;2022-10-31T04:55:13;6.93;;;3.75;;
7171;SDS011;3627;46.544;14.944;2022-10-31T04:57:40;7.05;;;3.33;;
7171;SDS011;3627;46.544;14.944;2022-10-31T05:00:07;6.28;;;3.30;;
7171;SDS011;3627;46.544;14.944;2022-10-31T05:02:41;6.50;;;4.03;;
7171;SDS011;3627;46.544;14.944;2022-10-31T05:05:08;5.93;;;3.58;;
7171;SDS011;3627;46.544;14.944;2022-10-31T05:07:37;6.75;;;3.22;;
7171;SDS011;3627;46.544;14.944;2022-10-31T05:10:04;4.47;;;2.97;;
7171;SDS011;3627;46.544;14.944;2022-10-31T05:12:31;3.38;;;3.00;;
7171;SDS011;3627;46.544;14.944;2022-10-31T05:14:57;3.58;;;2.88;;
7171;SDS011;3627;46.544;14.944;2022-10-31T05:17:24;3.40;;;3.10;;
7171;SDS011;3627;46.544;14.944;2022-10-31T05:19:51;4.20;;;3.42;;
7171;SDS011;3627;46.544;14.944;2022-10-31T05:22:18;3.50;;;3.17;;
7171;SDS011;3627;46.544;14.944;2022-10-31T05:24:44;4.00;;;3.60;;
7171;SDS011;3627;46.544;14.944;2022-10-31T05:27:11;7.30;;;4.35;;
7171;SDS011;3627;46.544;14.944;2022-10-31T05:29:37;4.43;;;3.33;;
7171;SDS011;3627;46.544;14.944;2022-10-31T05:32:03;13.52;;;6.90;;
7171;SDS011;3627;46.544;14.944;2022-10-31T05:34:30;8.60;;;5.78;;
7171;SDS011;3627;46.544;14.944;2022-10-31T05:36:57;7.93;;;4.10;;
7171;SDS011;3627;46.544;14.944;2022-10-31T05:39:24;3.88;;;3.13;;
7171;SDS011;3627;46.544;14.944;2022-10-31T05:41:50;5.35;;;3.22;;
7171;SDS011;3627;46.544;14.944;2022-10-31T05:44:17;3.83;;;2.92;;
7171;SDS011;3627;46.544;14.944;2022-10-31T05:46:43;3.95;;;3.13;;
7171;SDS011;3627;46.544;14.944;2022-10-31T05:49:10;5.75;;;3.45;;
7171;SDS011;3627;46.544;14.944;2022-10-31T05:51:36;3.88;;;2.85;;
7171;SDS011;3627;46.544;14.944;2022-10-31T05:54:04;5.50;;;3.08;;
7171;SDS011;3627;46.544;14.944;2022-10-31T05:56:31;5.13;;;3.10;;
7171;SDS011;3627;46.544;14.944;2022-10-31T05:58:57;6.20;;;3.17;;
7171;SDS011;3627;46.544;14.944;2022-10-31T06:01:23;2.92;;;2.60;;
7171;SDS011;3627;46.544;14.944;2022-10-31T06:03:50;4.65;;;2.70;;
7171;SDS011;3627;46.544;14.944;2022-10-31T06:06:16;6.85;;;3.20;;
7171;SDS011;3627;46.544;14.944;2022-10-31T06:08:43;4.38;;;2.92;;
7171;SDS011;3627;46.544;14.944;2022-10-31T06:11:10;4.97;;;3.25;;
7171;SDS011;3627;46.544;14.944;2022-10-31T06:13:37;4.63;;;2.97;;
7171;SDS011;3627;46.544;14.944;2022-10-31T06:16:04;3.80;;;3.10;;
7171;SDS011;3627;46.544;14.944;2022-10-31T06:18:30;5.15;;;2.75;;
7171;SDS011;3627;46.544;14.944;2022-10-31T06:20:56;4.47;;;3.83;;
7171;SDS011;3627;46.544;14.944;2022-10-31T06:23:23;3.47;;;3.17;;
7171;SDS011;3627;46.544;14.944;2022-10-31T06:25:49;5.35;;;3.67;;
7171;SDS011;3627;46.544;14.944;2022-10-31T06:28:17;5.93;;;2.72;;
7171;SDS011;3627;46.544;14.944;2022-10-31T06:30:44;5.68;;;2.97;;
7171;SDS011;3627;46.544;14.944;2022-10-31T06:33:11;3.72;;;2.42;;
7171;SDS011;3627;46.544;14.944;2022-10-31T06:35:37;6.03;;;2.78;;
7171;SDS011;3627;46.544;14.944;2022-10-31T06:38:04;5.70;;;3.50;;
7171;SDS011;3627;46.544;14.944;2022-10-31T06:40:30;5.25;;;2.97;;
7171;SDS011;3627;46.544;14.944;2022-10-31T06:42:57;5.82;;;3.08;;
7171;SDS011;3627;46.544;14.944;2022-10-31T06:45:25;4.22;;;2.92;;
7171;SDS011;3627;46.544;14.944;2022-10-31T06:47:52;4.15;;;3.35;;
7171;SDS011;3627;46.544;14.944;2022-10-31T06:50:18;4.82;;;3.33;;
7171;SDS011;3627;46.544;14.944;2022-10-31T06:52:49;7.18;;;3.25;;
7171;SDS011;3627;46.544;14.944;2022-10-31T06:55:15;11.88;;;3.67;;
7171;SDS011;3627;46.544;14.944;2022-10-31T06:57:42;6.53;;;3.10;;
7171;SDS011;3627;46.544;14.944;2022-10-31T07:00:08;3.90;;;2.35;;
7171;SDS011;3627;46.544;14.944;2022-10-31T07:02:36;2.50;;;2.30;;
7171;SDS011;3627;46.544;14.944;2022-10-31T07:05:03;4.68;;;2.05;;
7171;SDS011;3627;46.544;14.944;2022-10-31T07:07:29;4.30;;;2.10;;
7171;SDS011;3627;46.544;14.944;2022-10-31T07:09:56;4.90;;;2.08;;
7171;SDS011;3627;46.544;14.944;2022-10-31T07:12:23;3.35;;;2.05;;
7171;SDS011;3627;46.544;14.944;2022-10-31T07:14:49;3.53;;;2.70;;
7171;SDS011;3627;46.544;14.944;2022-10-31T07:17:16;3.40;;;1.90;;
7171;SDS011;3627;46.544;14.944;2022-10-31T07:19:44;2.03;;;1.83;;
7171;SDS011;3627;46.544;14.944;2022-10-31T07:22:10;2.95;;;1.70;;
7171;SDS011;3627;46.544;14.944;2022-10-31T07:24:36;2.35;;;1.65;;
7171;SDS011;3627;46.544;14.944;2022-10-31T07:27:03;4.75;;;2.42;;
7171;SDS011;3627;46.544;14.944;2022-10-31T07:29:29;3.15;;;2.03;;
7171;SDS011;3627;46.544;14.944;2022-10-31T07:31:55;3.13;;;2.15;;
7171;SDS011;3627;46.544;14.944;2022-10-31T07:34:22;3.20;;;1.90;;
7171;SDS011;3627;46.544;14.944;2022-10-31T07:36:51;2.67;;;1.85;;
7171;SDS011;3627;46.544;14.944;2022-10-31T07:39:18;1.98;;;1.88;;
7171;SDS011;3627;46.544;14.944;2022-10-31T07:41:44;2.20;;;1.73;;
7171;SDS011;3627;46.544;14.944;2022-10-31T07:44:11;2.55;;;2.05;;
7171;SDS011;3627;46.544;14.944;2022-10-31T07:46:37;1.77;;;1.65;;
7171;SDS011;3627;46.544;14.944;2022-10-31T07:49:03;2.50;;;1.70;;
7171;SDS011;3627;46.544;14.944;2022-10-31T07:51:30;3.20;;;2.13;;
7171;SDS011;3627;46.544;14.944;2022-10-31T07:53:57;2.28;;;1.52;;
7171;SDS011;3627;46.544;14.944;2022-10-31T07:56:24;2.95;;;1.70;;
7171;SDS011;3627;46.544;14.944;2022-10-31T07:58:50;1.95;;;1.60;;
7171;SDS011;3627;46.544;14.944;2022-10-31T08:01:17;2.85;;;1.77;;
7171;SDS011;3627;46.544;14.944;2022-10-31T08:03:43;4.35;;;1.42;;
7171;SDS011;3627;46.544;14.944;2022-10-31T08:06:10;4.53;;;1.90;;
7171;SDS011;3627;46.544;14.944;2022-10-31T08:08:36;2.20;;;1.65;;
7171;SDS011;3627;46.544;14.944;2022-10-31T08:11:04;2.78;;;1.83;;
7171;SDS011;3627;46.544;14.944;2022-10-31T08:13:31;3.00;;;1.75;;
7171;SDS011;3627;46.544;14.944;2022-10-31T08:15:57;3.60;;;1.83;;
7171;SDS011;3627;46.544;14.944;2022-10-31T08:18:28;4.28;;;1.50;;
7171;SDS011;3627;46.544;14.944;2022-10-31T08:20:55;3.83;;;2.10;;
7171;SDS011;3627;46.544;14.944;2022-10-31T08:23:21;4.28;;;2.17;;
7171;SDS011;3627;46.544;14.944;2022-10-31T08:25:47;4.60;;;2.30;;
7171;SDS011;3627;46.544;14.944;2022-10-31T08:28:15;2.97;;;1.90;;
7171;SDS011;3627;46.544;14.944;2022-10-31T08:30:41;4.72;;;2.00;;
7171;SDS011;3627;46.544;14.944;2022-10-31T08:33:09;5.10;;;2.00;;
7171;SDS011;3627;46.544;14.944;2022-10-31T08:35:36;2.28;;;1.75;;
7171;SDS011;3627;46.544;14.944;2022-10-31T08:38:04;1.90;;;1.55;;
7171;SDS011;3627;46.544;14.944;2022-10-31T08:40:32;3.35;;;1.65;;
7171;SDS011;3627;46.544;14.944;2022-10-31T08:42:58;3.15;;;2.00;;
7171;SDS011;3627;46.544;14.944;2022-10-31T08:45:27;1.77;;;1.55;;
7171;SDS011;3627;46.544;14.944;2022-10-31T08:47:56;3.33;;;1.92;;
7171;SDS011;3627;46.544;14.944;2022-10-31T08:50:22;2.20;;;1.50;;
7171;SDS011;3627;46.544;14.944;2022-10-31T08:52:49;2.63;;;1.63;;
7171;SDS011;3627;46.544;14.944;2022-10-31T08:55:15;3.00;;;2.40;;
7171;SDS011;3627;46.544;14.944;2022-10-31T08:57:42;5.53;;;1.98;;
7171;SDS011;3627;46.544;14.944;2022-10-31T09:00:08;3.67;;;2.15;;
7171;SDS011;3627;46.544;14.944;2022-10-31T09:02:36;6.88;;;2.60;;
7171;SDS011;3627;46.544;14.944;2022-10-31T09:05:03;3.08;;;2.45;;
7171;SDS011;3627;46.544;14.944;2022-10-31T09:07:30;4.20;;;1.98;;
7171;SDS011;3627;46.544;14.944;2022-10-31T09:09:56;4.20;;;2.97;;
7171;SDS011;3627;46.544;14.944;2022-10-31T09:12:23;3.47;;;1.98;;
7171;SDS011;3627;46.544;14.944;2022-10-31T09:14:50;5.53;;;2.78;;
7171;SDS011;3627;46.544;14.944;2022-10-31T09:17:16;4.03;;;2.13;;
7171;SDS011;3627;46.544;14.944;2022-10-31T09:19:44;3.65;;;1.77;;
7171;SDS011;3627;46.544;14.944;2022-10-31T09:22:10;5.85;;;2.10;;
7171;SDS011;3627;46.544;14.944;2022-10-31T09:24:36;3.55;;;1.73;;
7171;SDS011;3627;46.544;14.944;2022-10-31T09:27:03;3.28;;;1.83;;
7171;SDS011;3627;46.544;14.944;2022-10-31T09:29:29;4.07;;;2.13;;
7171;SDS011;3627;46.544;14.944;2022-10-31T09:31:55;3.00;;;1.73;;
7171;SDS011;3627;46.544;14.944;2022-10-31T09:34:22;3.03;;;1.73;;
7171;SDS011;3627;46.544;14.944;2022-10-31T09:36:50;3.22;;;1.67;;
7171;SDS011;3627;46.544;14.944;2022-10-31T09:39:16;3.05;;;1.70;;
7171;SDS011;3627;46.544;14.944;2022-10-31T09:41:55;1.70;;;1.50;;
7171;SDS011;3627;46.544;14.944;2022-10-31T09:44:26;2.47;;;2.00;;
7171;SDS011;3627;46.544;14.944;2022-10-31T09:46:56;7.30;;;1.90;;
7171;SDS011;3627;46.544;14.944;2022-10-31T09:49:32;5.63;;;1.92;;
7171;SDS011;3627;46.544;14.944;2022-10-31T09:52:02;4.35;;;1.95;;
7171;SDS011;3627;46.544;14.944;2022-10-31T09:54:31;3.17;;;1.70;;
7171;SDS011;3627;46.544;14.944;2022-10-31T09:56:58;3.35;;;2.00;;
7171;SDS011;3627;46.544;14.944;2022-10-31T09:59:27;5.47;;;2.25;;
7171;SDS011;3627;46.544;14.944;2022-10-31T10:01:55;2.88;;;1.80;;
7171;SDS011;3627;46.544;14.944;2022-10-31T10:04:31;4.40;;;2.25;;
7171;SDS011;3627;46.544;14.944;2022-10-31T10:06:58;2.60;;;1.70;;
7171;SDS011;3627;46.544;14.944;2022-10-31T10:09:29;4.90;;;2.13;;
7171;SDS011;3627;46.544;14.944;2022-10-31T10:11:59;2.53;;;1.80;;
7171;SDS011;3627;46.544;14.944;2022-10-31T10:17:16;3.65;;;2.28;;
7171;SDS011;3627;46.544;14.944;2022-10-31T10:19:51;3.08;;;1.90;;
7171;SDS011;3627;46.544;14.944;2022-10-31T10:22:19;5.05;;;1.88;;
7171;SDS011;3627;46.544;14.944;2022-10-31T10:24:59;3.72;;;1.83;;
7171;SDS011;3627;46.544;14.944;2022-10-31T10:27:30;3.70;;;1.80;;
7171;SDS011;3627;46.544;14.944;2022-10-31T10:30:03;4.10;;;2.13;;
7171;SDS011;3627;46.544;14.944;2022-10-31T10:32:34;3.63;;;2.05;;
7171;SDS011;3627;46.544;14.944;2022-10-31T10:35:02;3.55;;;2.05;;
7171;SDS011;3627;46.544;14.944;2022-10-31T10:37:31;2.05;;;1.60;;
7171;SDS011;3627;46.544;14.944;2022-10-31T10:40:02;3.10;;;1.88;;
7171;SDS011;3627;46.544;14.944;2022-10-31T10:42:32;2.65;;;2.25;;
7171;SDS011;3627;46.544;14.944;2022-10-31T10:45:17;3.78;;;1.85;;
7171;SDS011;3627;46.544;14.944;2022-10-31T10:48:05;2.20;;;2.00;;
7171;SDS011;3627;46.544;14.944;2022-10-31T10:50:34;2.58;;;1.95;;
7171;SDS011;3627;46.544;14.944;2022-10-31T10:53:01;2.90;;;2.20;;
7171;SDS011;3627;46.544;14.944;2022-10-31T10:55:34;3.75;;;1.98;;
7171;SDS011;3627;46.544;14.944;2022-10-31T10:58:03;4.95;;;2.58;;
7171;SDS011;3627;46.544;14.944;2022-10-31T11:00:30;3.70;;;2.10;;
7171;SDS011;3627;46.544;14.944;2022-10-31T11:02:58;3.20;;;1.83;;
7171;SDS011;3627;46.544;14.944;2022-10-31T11:05:25;2.08;;;1.88;;
7171;SDS011;3627;46.544;14.944;2022-10-31T11:07:54;2.83;;;1.92;;
7171;SDS011;3627;46.544;14.944;2022-10-31T11:10:20;4.20;;;2.42;;
7171;SDS011;3627;46.544;14.944;2022-10-31T11:12:58;3.95;;;2.45;;
7171;SDS011;3627;46.544;14.944;2022-10-31T11:15:26;4.68;;;2.08;;
7171;SDS011;3627;46.544;14.944;2022-10-31T11:17:54;3.80;;;2.10;;
7171;SDS011;3627;46.544;14.944;2022-10-31T11:20:28;8.00;;;1.95;;
7171;SDS011;3627;46.544;14.944;2022-10-31T11:23:16;2.22;;;1.90;;
7171;SDS011;3627;46.544;14.944;2022-10-31T11:25:50;3.25;;;1.92;;
7171;SDS011;3627;46.544;14.944;2022-10-31T11:28:18;3.70;;;2.15;;
7171;SDS011;3627;46.544;14.944;2022-10-31T11:30:46;2.38;;;1.50;;
7171;SDS011;3627;46.544;14.944;2022-10-31T11:33:16;2.67;;;1.75;;
7171;SDS011;3627;46.544;14.944;2022-10-31T11:35:43;4.30;;;1.88;;
7171;SDS011;3627;46.544;14.944;2022-10-31T11:38:12;4.55;;;2.13;;
7171;SDS011;3627;46.544;14.944;2022-10-31T11:40:44;2.15;;;1.90;;
7171;SDS011;3627;46.544;14.944;2022-10-31T11:43:18;5.40;;;2.45;;
7171;SDS011;3627;46.544;14.944;2022-10-31T11:45:45;3.70;;;1.77;;
7171;SDS011;3627;46.544;14.944;2022-10-31T11:48:14;4.35;;;2.20;;
7171;SDS011;3627;46.544;14.944;2022-10-31T11:50:41;6.30;;;2.50;;
7171;SDS011;3627;46.544;14.944;2022-10-31T11:53:11;6.25;;;2.20;;
7171;SDS011;3627;46.544;14.944;2022-10-31T11:55:39;3.17;;;2.00;;
7171;SDS011;3627;46.544;14.944;2022-10-31T11:58:19;4.28;;;2.13;;
7171;SDS011;3627;46.544;14.944;2022-10-31T12:00:48;4.45;;;1.95;;
7171;SDS011;3627;46.544;14.944;2022-10-31T12:03:15;6.28;;;1.95;;
7171;SDS011;3627;46.544;14.944;2022-10-31T12:05:46;3.08;;;1.60;;
7171;SDS011;3627;46.544;14.944;2022-10-31T12:08:13;2.42;;;2.00;;
7171;SDS011;3627;46.544;14.944;2022-10-31T12:10:42;2.92;;;2.10;;
7171;SDS011;3627;46.544;14.944;2022-10-31T12:13:13;5.68;;;2.08;;
7171;SDS011;3627;46.544;14.944;2022-10-31T12:15:46;3.28;;;2.13;;
7171;SDS011;3627;46.544;14.944;2022-10-31T12:21:04;2.63;;;2.03;;
7171;SDS011;3627;46.544;14.944;2022-10-31T12:23:38;4.15;;;2.50;;
7171;SDS011;3627;46.544;14.944;2022-10-31T12:26:09;3.90;;;2.40;;
7171;SDS011;3627;46.544;14.944;2022-10-31T12:28:42;3.38;;;2.30;;
7171;SDS011;3627;46.544;14.944;2022-10-31T12:31:15;2.15;;;1.85;;
7171;SDS011;3627;46.544;14.944;2022-10-31T12:33:47;3.65;;;1.95;;
7171;SDS011;3627;46.544;14.944;2022-10-31T12:36:21;6.72;;;1.55;;
7171;SDS011;3627;46.544;14.944;2022-10-31T12:38:51;3.65;;;2.20;;
7171;SDS011;3627;46.544;14.944;2022-10-31T12:41:24;4.45;;;2.22;;
7171;SDS011;3627;46.544;14.944;2022-10-31T12:43:55;4.57;;;2.22;;
7171;SDS011;3627;46.544;14.944;2022-10-31T12:46:27;2.80;;;1.92;;
7171;SDS011;3627;46.544;14.944;2022-10-31T12:49:01;3.67;;;1.90;;
7171;SDS011;3627;46.544;14.944;2022-10-31T12:51:33;3.53;;;1.63;;
7171;SDS011;3627;46.544;14.944;2022-10-31T12:54:08;6.95;;;2.17;;
7171;SDS011;3627;46.544;14.944;2022-10-31T12:56:43;3.72;;;1.77;;
7171;SDS011;3627;46.544;14.944;2022-10-31T12:59:15;5.75;;;1.90;;
7171;SDS011;3627;46.544;14.944;2022-10-31T13:01:45;3.05;;;2.05;;
7171;SDS011;3627;46.544;14.944;2022-10-31T13:04:14;5.68;;;1.90;;
7171;SDS011;3627;46.544;14.944;2022-10-31T13:06:43;3.40;;;1.80;;
7171;SDS011;3627;46.544;14.944;2022-10-31T13:09:11;4.15;;;2.17;;
7171;SDS011;3627;46.544;14.944;2022-10-31T13:11:40;3.38;;;1.98;;
7171;SDS011;3627;46.544;14.944;2022-10-31T13:14:16;6.20;;;1.85;;
7171;SDS011;3627;46.544;14.944;2022-10-31T13:16:48;2.35;;;1.58;;
7171;SDS011;3627;46.544;14.944;2022-10-31T13:19:16;2.90;;;1.70;;
7171;SDS011;3627;46.544;14.944;2022-10-31T13:21:45;4.20;;;2.17;;
7171;SDS011;3627;46.544;14.944;2022-10-31T13:24:17;4.85;;;1.90;;
7171;SDS011;3627;46.544;14.944;2022-10-31T13:26:46;3.72;;;2.08;;
7171;SDS011;3627;46.544;14.944;2022-10-31T13:29:17;2.95;;;1.77;;
7171;SDS011;3627;46.544;14.944;2022-10-31T13:31:44;2.92;;;2.00;;
7171;SDS011;3627;46.544;14.944;2022-10-31T13:34:16;5.43;;;1.83;;
7171;SDS011;3627;46.544;14.944;2022-10-31T13:36:45;3.60;;;1.65;;
7171;SDS011;3627;46.544;14.944;2022-10-31T13:39:17;1.80;;;1.60;;
7171;SDS011;3627;46.544;14.944;2022-10-31T13:41:47;4.05;;;2.25;;
7171;SDS011;3627;46.544;14.944;2022-10-31T13:44:18;3.28;;;1.85;;
7171;SDS011;3627;46.544;14.944;2022-10-31T13:46:46;2.28;;;1.85;;
7171;SDS011;3627;46.544;14.944;2022-10-31T13:49:23;4.07;;;2.15;;
7171;SDS011;3627;46.544;14.944;2022-10-31T13:51:50;4.65;;;1.80;;
7171;SDS011;3627;46.544;14.944;2022-10-31T13:54:21;2.15;;;1.55;;
7171;SDS011;3627;46.544;14.944;2022-10-31T13:56:48;2.72;;;2.47;;
7171;SDS011;3627;46.544;14.944;2022-10-31T13:59:17;4.65;;;2.00;;
7171;SDS011;3627;46.544;14.944;2022-10-31T14:01:45;5.40;;;2.90;;
7171;SDS011;3627;46.544;14.944;2022-10-31T14:04:14;6.68;;;1.73;;
7171;SDS011;3627;46.544;14.944;2022-10-31T14:06:44;4.60;;;2.10;;
7171;SDS011;3627;46.544;14.944;2022-10-31T14:09:19;5.80;;;2.20;;
7171;SDS011;3627;46.544;14.944;2022-10-31T14:11:46;4.05;;;1.98;;
7171;SDS011;3627;46.544;14.944;2022-10-31T14:14:13;2.72;;;2.15;;
7171;SDS011;3627;46.544;14.944;2022-10-31T14:16:41;2.13;;;1.92;;
7171;SDS011;3627;46.544;14.944;2022-10-31T14:19:13;4.70;;;2.53;;
7171;SDS011;3627;46.544;14.944;2022-10-31T14:21:41;8.43;;;2.00;;
7171;SDS011;3627;46.544;14.944;2022-10-31T14:24:14;4.75;;;2.03;;
7171;SDS011;3627;46.544;14.944;2022-10-31T14:26:51;4.35;;;2.83;;
7171;SDS011;3627;46.544;14.944;2022-10-31T14:29:22;4.75;;;2.10;;
7171;SDS011;3627;46.544;14.944;2022-10-31T14:31:53;3.40;;;2.10;;
7171;SDS011;3627;46.544;14.944;2022-10-31T14:34:21;8.40;;;2.80;;
7171;SDS011;3627;46.544;14.944;2022-10-31T14:36:50;5.57;;;2.50;;
7171;SDS011;3627;46.544;14.944;2022-10-31T14:39:22;4.22;;;2.50;;
7171;SDS011;3627;46.544;14.944;2022-10-31T14:41:53;7.35;;;3.53;;
7171;SDS011;3627;46.544;14.944;2022-10-31T14:44:38;3.22;;;2.45;;
7171;SDS011;3627;46.544;14.944;2022-10-31T14:47:09;5.28;;;2.60;;
7171;SDS011;3627;46.544;14.944;2022-10-31T14:49:44;9.75;;;3.30;;
7171;SDS011;3627;46.544;14.944;2022-10-31T14:52:14;6.72;;;2.25;;
7171;SDS011;3627;46.544;14.944;2022-10-31T14:54:45;4.78;;;2.58;;
7171;SDS011;3627;46.544;14.944;2022-10-31T14:57:15;4.60;;;2.20;;
7171;SDS011;3627;46.544;14.944;2022-10-31T14:59:44;3.90;;;2.28;;
7171;SDS011;3627;46.544;14.944;2022-10-31T15:02:14;6.10;;;2.42;;
7171;SDS011;3627;46.544;14.944;2022-10-31T15:04:41;4.88;;;2.58;;
7171;SDS011;3627;46.544;14.944;2022-10-31T15:07:10;4.95;;;2.75;;
7171;SDS011;3627;46.544;14.944;2022-10-31T15:09:37;3.00;;;2.60;;
7171;SDS011;3627;46.544;14.944;2022-10-31T15:14:48;5.72;;;2.53;;
7171;SDS011;3627;46.544;14.944;2022-10-31T15:17:14;7.00;;;2.67;;
7171;SDS011;3627;46.544;14.944;2022-10-31T15:19:41;4.43;;;2.50;;